Time;durP1;ratioP1;P1;durP2;ratioP2;P2;SDS_P1;SDS_P2;PMS_P1;PMS_P2;Temp;Humidity;BMP_temperature;BMP_pressure;BME280_temperature;BME280_humidity;BME280_pressure;Samples;Min_cycle;Max_cycle;Signal;HPM_P1;HPM_P2
2021/01/25 00:00:18;;;;;;;0.80;0.75;;;18.50;63.00;;;;;;5072383;28;20524;-28
2021/01/25 00:02:44;;;;;;;1.08;0.98;;;18.50;63.20;;;;;;5071670;28;20025;-34
2021/01/25 00:05:10;;;;;;;0.85;0.70;;;18.50;63.10;;;;;;5071825;28;20021;-33
2021/01/25 00:07:36;;;;;;;0.55;0.50;;;18.50;63.00;;;;;;5074479;28;20028;-29
2021/01/25 00:10:03;;;;;;;0.68;0.60;;;18.50;63.00;;;;;;5073679;28;20024;-28
2021/01/25 00:12:28;;;;;;;0.60;0.60;;;18.50;63.20;;;;;;5072904;28;20036;-31
2021/01/25 00:14:54;;;;;;;0.50;0.50;;;18.50;63.20;;;;;;5071351;28;20025;-31
2021/01/25 00:17:19;;;;;;;0.50;0.50;;;18.50;63.20;;;;;;5072918;28;20021;-28
2021/01/25 00:19:45;;;;;;;0.60;0.60;;;18.50;63.20;;;;;;5072780;28;20024;-29
2021/01/25 00:22:11;;;;;;;0.70;0.70;;;18.50;63.20;;;;;;5074920;28;20150;-29
2021/01/25 00:24:36;;;;;;;0.77;0.77;;;18.40;63.20;;;;;;5072874;28;20025;-31
2021/01/25 00:27:02;;;;;;;0.60;0.60;;;18.40;63.20;;;;;;5072704;28;20111;-32
2021/01/25 00:29:28;;;;;;;0.50;0.50;;;18.40;63.10;;;;;;5072562;28;20021;-29
2021/01/25 00:31:54;;;;;;;0.50;0.50;;;18.40;63.20;;;;;;5071508;28;20045;-28
2021/01/25 00:34:20;;;;;;;0.70;0.70;;;18.40;63.10;;;;;;5074249;28;20569;-30
2021/01/25 00:36:46;;;;;;;1.35;0.50;;;18.40;63.20;;;;;;5072559;28;20393;-28
2021/01/25 00:39:11;;;;;;;0.95;0.90;;;18.40;63.40;;;;;;5072353;28;20024;-31
2021/01/25 00:41:37;;;;;;;0.90;0.55;;;18.40;63.30;;;;;;5071078;28;20103;-33
2021/01/25 00:44:03;;;;;;;0.68;0.68;;;18.40;63.20;;;;;;5070667;28;20028;-31
2021/01/25 00:46:28;;;;;;;0.70;0.70;;;18.40;63.10;;;;;;5074424;28;20108;-29
2021/01/25 00:48:54;;;;;;;0.63;0.60;;;18.40;63.90;;;;;;5070502;28;20028;-28
2021/01/25 00:51:19;;;;;;;0.50;0.50;;;18.40;63.00;;;;;;5072178;28;20033;-30
2021/01/25 00:53:45;;;;;;;0.50;0.50;;;18.40;62.90;;;;;;5070695;28;20437;-34
2021/01/25 00:56:11;;;;;;;0.40;0.40;;;18.40;63.20;;;;;;5072331;28;20036;-31
2021/01/25 00:58:38;;;;;;;0.68;0.60;;;18.40;63.10;;;;;;5073370;28;20065;-29
2021/01/25 01:01:03;;;;;;;0.55;0.50;;;18.40;63.20;;;;;;5072628;28;20055;-28
2021/01/25 01:03:29;;;;;;;0.50;0.50;;;18.30;63.20;;;;;;5071947;28;20410;-34
2021/01/25 01:05:54;;;;;;;0.52;0.40;;;18.40;63.30;;;;;;5071804;28;20563;-31
2021/01/25 01:08:20;;;;;;;0.45;0.45;;;18.40;63.10;;;;;;5071770;28;20100;-28
2021/01/25 01:10:46;;;;;;;0.80;0.57;;;18.30;63.10;;;;;;5071667;28;20036;-31
2021/01/25 01:13:11;;;;;;;0.60;0.60;;;18.30;63.20;;;;;;5073805;28;20453;-37
2021/01/25 01:15:37;;;;;;;0.50;0.50;;;18.30;63.00;;;;;;5071586;28;20489;-30
2021/01/25 01:18:03;;;;;;;0.50;0.50;;;18.40;63.20;;;;;;5071674;28;20113;-32
2021/01/25 01:20:28;;;;;;;0.50;0.50;;;18.40;62.90;;;;;;5070683;28;20028;-35
2021/01/25 01:22:54;;;;;;;0.40;0.40;;;18.30;63.00;;;;;;5071213;28;20103;-35
2021/01/25 01:25:19;;;;;;;0.75;0.60;;;18.40;62.80;;;;;;5072902;28;20036;-30
2021/01/25 01:27:45;;;;;;;0.60;0.60;;;18.30;63.00;;;;;;5069762;28;20021;-30
2021/01/25 01:30:11;;;;;;;0.77;0.50;;;18.40;62.80;;;;;;5071766;28;20055;-34
2021/01/25 01:32:38;;;;;;;0.65;0.50;;;18.30;62.90;;;;;;5070154;28;20048;-31
2021/01/25 01:35:05;;;;;;;0.50;0.50;;;18.30;63.10;;;;;;5071257;28;20049;-30
2021/01/25 01:37:30;;;;;;;0.50;0.50;;;18.30;63.10;;;;;;5073474;28;20028;-31
2021/01/25 01:39:56;;;;;;;0.77;0.55;;;18.30;63.10;;;;;;5070068;28;20047;-29
2021/01/25 01:42:21;;;;;;;0.40;0.40;;;18.30;63.00;;;;;;5070948;28;20417;-30
2021/01/25 01:44:47;;;;;;;0.60;0.60;;;18.30;63.20;;;;;;5071146;28;20032;-33
2021/01/25 01:47:15;;;;;;;0.40;0.40;;;18.30;63.20;;;;;;5071228;28;20023;-28
2021/01/25 01:49:40;;;;;;;0.50;0.50;;;18.30;63.50;;;;;;5070637;28;20036;-31
2021/01/25 01:52:06;;;;;;;1.58;0.38;;;18.30;63.60;;;;;;5071295;28;20039;-30
2021/01/25 01:54:32;;;;;;;0.35;0.35;;;18.30;63.70;;;;;;5071124;28;20028;-28
2021/01/25 01:56:57;;;;;;;0.47;0.43;;;18.30;63.60;;;;;;5070727;28;20020;-37
2021/01/25 01:59:23;;;;;;;0.52;0.50;;;18.30;63.50;;;;;;5068692;28;20024;-29
2021/01/25 02:01:48;;;;;;;0.80;0.50;;;18.20;63.50;;;;;;5071025;28;20544;-30
2021/01/25 02:04:14;;;;;;;0.43;0.40;;;18.20;63.60;;;;;;5071349;28;20118;-35
2021/01/25 02:06:40;;;;;;;0.50;0.40;;;18.30;63.60;;;;;;5067963;28;20032;-30
2021/01/25 02:09:05;;;;;;;0.40;0.40;;;18.20;63.60;;;;;;5070604;28;20149;-31
2021/01/25 02:11:31;;;;;;;0.50;0.40;;;18.20;63.60;;;;;;5051141;28;20025;-32
2021/01/25 02:13:56;;;;;;;0.50;0.30;;;18.20;63.60;;;;;;5069600;28;20020;-33
2021/01/25 02:16:22;;;;;;;0.47;0.40;;;18.20;63.80;;;;;;5054423;28;20051;-37
2021/01/25 02:18:47;;;;;;;0.50;0.40;;;18.20;63.80;;;;;;5070567;28;20029;-33
2021/01/25 02:21:14;;;;;;;0.35;0.35;;;18.20;63.50;;;;;;5069454;28;20031;-30
2021/01/25 02:23:45;;;;;;;0.30;0.30;;;18.20;63.60;;;;;;5052625;28;20028;-32
2021/01/25 02:26:11;;;;;;;0.50;0.50;;;18.20;64.40;;;;;;5070456;28;20025;-31
2021/01/25 02:28:38;;;;;;;0.32;0.30;;;18.20;63.60;;;;;;5071829;28;20070;-30
2021/01/25 02:31:04;;;;;;;0.52;0.43;;;18.20;63.80;;;;;;5071299;28;20037;-33
2021/01/25 02:33:30;;;;;;;0.30;0.20;;;18.20;63.90;;;;;;5070369;28;20020;-31
2021/01/25 02:35:56;;;;;;;0.30;0.30;;;18.20;63.80;;;;;;5052654;28;20021;-32
2021/01/25 02:38:21;;;;;;;0.50;0.47;;;18.20;64.10;;;;;;5067929;28;20028;-32
2021/01/25 02:40:47;;;;;;;0.85;0.50;;;18.10;64.10;;;;;;5069347;28;20031;-29
2021/01/25 02:43:13;;;;;;;0.30;0.30;;;18.10;63.80;;;;;;5069391;28;20098;-33
2021/01/25 02:45:39;;;;;;;0.55;0.30;;;18.10;64.20;;;;;;5050861;28;20502;-31
2021/01/25 02:48:05;;;;;;;0.60;0.40;;;18.20;63.90;;;;;;5052270;28;20028;-29
2021/01/25 02:50:30;;;;;;;0.30;0.30;;;18.20;64.00;;;;;;5067611;28;20020;-29
2021/01/25 02:52:56;;;;;;;0.35;0.35;;;18.20;64.00;;;;;;5070278;28;20063;-29
2021/01/25 02:55:21;;;;;;;0.40;0.40;;;18.10;64.00;;;;;;5072069;28;20038;-31
2021/01/25 02:57:47;;;;;;;0.20;0.20;;;18.10;64.00;;;;;;5068897;28;20119;-35
2021/01/25 03:00:13;;;;;;;0.40;0.40;;;18.10;64.00;;;;;;5068676;28;20509;-32
2021/01/25 03:02:39;;;;;;;0.38;0.38;;;18.20;64.10;;;;;;5068974;28;20032;-30
2021/01/25 03:05:05;;;;;;;0.20;0.20;;;18.10;64.00;;;;;;5069136;28;20029;-29
2021/01/25 03:07:30;;;;;;;0.40;0.40;;;18.10;63.90;;;;;;5072324;28;20027;-30
2021/01/25 03:10:00;;;;;;;0.30;0.30;;;18.10;64.80;;;;;;5067456;28;20482;-34
2021/01/25 03:12:26;;;;;;;0.40;0.40;;;18.10;64.10;;;;;;5069928;28;20120;-37
2021/01/25 03:14:51;;;;;;;0.20;0.20;;;18.20;64.10;;;;;;5051956;28;20174;-34
2021/01/25 03:17:17;;;;;;;0.30;0.30;;;18.10;63.90;;;;;;5067139;28;20021;-32
2021/01/25 03:19:42;;;;;;;0.68;0.40;;;18.10;63.90;;;;;;5070899;28;20407;-30
2021/01/25 03:22:08;;;;;;;0.28;0.28;;;18.20;64.00;;;;;;5069539;28;20024;-29
2021/01/25 03:24:33;;;;;;;0.40;0.40;;;18.10;63.70;;;;;;5068372;28;20029;-30
2021/01/25 03:26:59;;;;;;;0.38;0.38;;;18.10;63.70;;;;;;5069909;28;20021;-28
2021/01/25 03:29:24;;;;;;;0.30;0.30;;;18.20;63.70;;;;;;5072355;28;20432;-31
2021/01/25 03:31:50;;;;;;;0.30;0.30;;;18.10;63.70;;;;;;5073905;28;20051;-31
2021/01/25 03:34:16;;;;;;;0.30;0.30;;;18.10;63.70;;;;;;5075838;28;20021;-36
2021/01/25 03:36:41;;;;;;;0.20;0.20;;;18.10;63.70;;;;;;5073505;28;20033;-37
2021/01/25 03:39:07;;;;;;;0.60;0.43;;;18.20;63.80;;;;;;5073516;28;20016;-28
2021/01/25 03:41:32;;;;;;;0.45;0.30;;;18.10;63.80;;;;;;5073596;28;20066;-31
2021/01/25 03:43:58;;;;;;;0.40;0.40;;;18.10;63.80;;;;;;5073627;28;20403;-28
2021/01/25 03:46:24;;;;;;;0.80;0.45;;;18.10;63.80;;;;;;5075193;28;20032;-28
2021/01/25 03:48:50;;;;;;;0.40;0.40;;;18.10;63.80;;;;;;5073361;28;20035;-32
2021/01/25 03:51:18;;;;;;;0.30;0.25;;;18.10;63.80;;;;;;5071925;28;20033;-29
2021/01/25 03:53:47;;;;;;;0.63;0.30;;;18.10;63.80;;;;;;5073342;28;20027;-31
2021/01/25 03:56:12;;;;;;;0.30;0.30;;;18.10;63.80;;;;;;5072095;28;20029;-30
2021/01/25 03:58:38;;;;;;;0.30;0.30;;;18.10;63.90;;;;;;5074005;28;20020;-32
2021/01/25 04:01:03;;;;;;;0.50;0.50;;;18.10;64.70;;;;;;5072829;28;20518;-28
2021/01/25 04:03:29;;;;;;;1.00;0.30;;;18.10;63.80;;;;;;5071637;28;20044;-31
2021/01/25 04:05:55;;;;;;;0.35;0.35;;;18.00;63.90;;;;;;5072859;28;20105;-32
2021/01/25 04:08:20;;;;;;;0.28;0.28;;;18.00;63.70;;;;;;5071727;28;20029;-31
2021/01/25 04:10:46;;;;;;;0.50;0.43;;;18.10;63.70;;;;;;5072930;28;20107;-31
2021/01/25 04:13:11;;;;;;;0.20;0.20;;;18.10;63.70;;;;;;5062585;28;20059;-34
2021/01/25 04:15:37;;;;;;;0.20;0.20;;;18.10;63.60;;;;;;5068990;28;20083;-34
2021/01/25 04:18:03;;;;;;;0.20;0.20;;;18.10;63.70;;;;;;5072330;28;20470;-28
2021/01/25 04:20:28;;;;;;;0.95;0.60;;;18.10;63.50;;;;;;5072672;28;20086;-32
2021/01/25 04:22:54;;;;;;;0.38;0.20;;;18.10;63.60;;;;;;5072652;28;20505;-31
2021/01/25 04:25:19;;;;;;;0.20;0.20;;;18.10;63.70;;;;;;5068535;28;20040;-35
2021/01/25 04:27:45;;;;;;;0.25;0.17;;;18.10;63.60;;;;;;5071436;28;20066;-31
2021/01/25 04:30:11;;;;;;;0.30;0.10;;;18.10;63.50;;;;;;5072167;28;20070;-30
2021/01/25 04:32:37;;;;;;;0.45;0.30;;;18.00;63.60;;;;;;5071245;28;20429;-32
2021/01/25 04:35:08;;;;;;;0.30;0.30;;;18.00;63.70;;;;;;5071874;28;20081;-36
2021/01/25 04:37:33;;;;;;;0.30;0.30;;;18.00;63.60;;;;;;5072788;28;20055;-31
2021/01/25 04:39:59;;;;;;;0.40;0.40;;;18.10;63.60;;;;;;5071890;28;20028;-36
2021/01/25 04:42:25;;;;;;;0.30;0.30;;;18.10;63.50;;;;;;5071356;28;20032;-35
2021/01/25 04:44:51;;;;;;;0.30;0.30;;;18.10;63.60;;;;;;5071476;28;20457;-33
2021/01/25 04:47:16;;;;;;;0.30;0.30;;;18.10;63.50;;;;;;5072046;28;20107;-29
2021/01/25 04:49:42;;;;;;;0.20;0.20;;;18.10;63.50;;;;;;5053773;28;20059;-33
2021/01/25 04:52:10;;;;;;;0.30;0.30;;;18.10;63.60;;;;;;5080191;28;20036;-33
2021/01/25 04:54:35;;;;;;;0.30;0.30;;;18.00;63.50;;;;;;5053860;28;20036;-30
2021/01/25 04:57:01;;;;;;;0.30;0.30;;;18.00;63.40;;;;;;5069955;28;20405;-30
2021/01/25 04:59:27;;;;;;;0.73;0.63;;;18.10;63.60;;;;;;5053350;28;20028;-35
2021/01/25 05:01:52;;;;;;;0.30;0.30;;;18.00;63.50;;;;;;5071070;28;20052;-32
2021/01/25 05:04:18;;;;;;;0.30;0.30;;;18.00;63.40;;;;;;5072766;28;20559;-34
2021/01/25 05:06:44;;;;;;;0.20;0.20;;;18.00;63.50;;;;;;5071013;28;20024;-32
2021/01/25 05:09:09;;;;;;;0.28;0.22;;;18.00;63.50;;;;;;5070975;28;20035;-31
2021/01/25 05:11:35;;;;;;;0.65;0.32;;;18.00;63.50;;;;;;5070740;28;20037;-28
2021/01/25 05:14:02;;;;;;;0.30;0.25;;;18.00;63.50;;;;;;5071258;28;20017;-30
2021/01/25 05:16:29;;;;;;;0.30;0.30;;;18.00;63.50;;;;;;5065625;28;20032;-30
2021/01/25 05:18:59;;;;;;;0.20;0.20;;;18.00;63.60;;;;;;5062775;28;20052;-31
2021/01/25 05:21:34;;;;;;;0.20;0.20;;;18.00;63.50;;;;;;5066465;28;20086;-34
2021/01/25 05:24:06;;;;;;;0.43;0.30;;;18.00;63.50;;;;;;5071566;28;20024;-32
2021/01/25 05:26:33;;;;;;;0.80;0.50;;;18.00;63.50;;;;;;5070285;28;20055;-29
2021/01/25 05:28:59;;;;;;;0.30;0.10;;;18.00;63.50;;;;;;5071516;28;20119;-29
2021/01/25 05:31:25;;;;;;;0.30;0.30;;;18.00;63.50;;;;;;5073493;28;20123;-32
2021/01/25 05:33:51;;;;;;;0.22;0.22;;;18.00;63.50;;;;;;5071420;28;20028;-27
2021/01/25 05:36:20;;;;;;;0.30;0.30;;;18.00;63.40;;;;;;5070847;28;20053;-34
2021/01/25 05:38:49;;;;;;;0.45;0.22;;;18.10;63.50;;;;;;5070184;28;20421;-32
2021/01/25 05:41:16;;;;;;;0.20;0.20;;;18.10;63.40;;;;;;5071087;28;20048;-37
2021/01/25 05:43:41;;;;;;;0.28;0.20;;;18.00;63.20;;;;;;5075751;28;20115;-29
2021/01/25 05:46:08;;;;;;;0.30;0.30;;;18.00;63.20;;;;;;5072278;28;20020;-33
2021/01/25 05:48:33;;;;;;;0.40;0.30;;;18.00;63.30;;;;;;5069854;28;20033;-29
2021/01/25 05:51:30;;;;;;;0.45;0.20;;;17.90;63.20;;;;;;5070169;28;20055;-30
2021/01/25 05:53:55;;;;;;;0.30;0.30;;;17.90;63.40;;;;;;5050550;28;20029;-30
2021/01/25 05:56:21;;;;;;;0.30;0.30;;;17.90;63.10;;;;;;5054039;28;20085;-33
2021/01/25 05:58:47;;;;;;;0.93;0.30;;;17.90;63.40;;;;;;5070916;28;20020;-32
2021/01/25 06:01:12;;;;;;;0.60;0.20;;;17.90;63.40;;;;;;5072134;28;20052;-28
2021/01/25 06:03:38;;;;;;;0.40;0.30;;;17.90;63.30;;;;;;5051637;28;20074;-29
2021/01/25 06:06:08;;;;;;;0.47;0.30;;;18.00;63.30;;;;;;5068774;28;20056;-31
2021/01/25 06:08:52;;;;;;;0.30;0.28;;;17.90;63.30;;;;;;5068160;28;20032;-35
2021/01/25 06:11:36;;;;;;;2.10;0.40;;;18.00;63.50;;;;;;5063097;28;20041;-31
2021/01/25 06:14:21;;;;;;;10.85;0.47;;;18.00;62.30;;;;;;5052393;28;20029;-32
2021/01/25 06:16:49;;;;;;;0.70;0.30;;;18.10;61.50;;;;;;5067411;28;20418;-30
2021/01/25 06:19:14;;;;;;;0.50;0.50;;;18.00;62.70;;;;;;5070671;28;20490;-32
2021/01/25 06:21:40;;;;;;;1.38;0.30;;;17.90;63.00;;;;;;5048034;28;20039;-39
2021/01/25 06:24:07;;;;;;;0.80;0.50;;;17.90;63.20;;;;;;5065875;28;20390;-28
2021/01/25 06:26:33;;;;;;;0.55;0.30;;;18.00;63.30;;;;;;5030284;28;20028;-31
2021/01/25 06:29:04;;;;;;;0.43;0.20;;;18.00;63.30;;;;;;5060272;28;20064;-35
2021/01/25 06:31:37;;;;;;;0.43;0.40;;;18.00;63.20;;;;;;5068902;28;20041;-34
2021/01/25 06:34:04;;;;;;;0.90;0.50;;;18.00;63.10;;;;;;5071698;28;20016;-29
2021/01/25 06:36:29;;;;;;;0.68;0.30;;;18.10;63.20;;;;;;5067361;28;20064;-33
2021/01/25 06:38:55;;;;;;;1.20;0.30;;;18.10;63.20;;;;;;5050106;28;20070;-31
2021/01/25 06:41:20;;;;;;;0.40;0.20;;;18.00;62.80;;;;;;5067780;28;20123;-31
2021/01/25 06:43:47;;;;;;;0.30;0.30;;;18.00;62.90;;;;;;5066582;28;20037;-31
2021/01/25 06:46:20;;;;;;;0.57;0.20;;;18.00;63.20;;;;;;5070317;28;20032;-33
2021/01/25 06:48:50;;;;;;;3.03;0.20;;;17.90;62.60;;;;;;5070850;28;20028;-30
2021/01/25 06:51:19;;;;;;;0.38;0.30;;;17.90;62.90;;;;;;5068972;28;20028;-28
2021/01/25 06:53:49;;;;;;;0.30;0.25;;;18.00;62.80;;;;;;5070243;28;20485;-32
2021/01/25 06:56:14;;;;;;;2.65;0.20;;;18.00;62.80;;;;;;5070376;28;20021;-29
2021/01/25 06:58:45;;;;;;;0.45;0.20;;;17.90;63.00;;;;;;5065345;28;20039;-30
2021/01/25 07:01:11;;;;;;;0.25;0.25;;;17.90;62.80;;;;;;5071181;28;20136;-29
2021/01/25 07:03:51;;;;;;;3.40;0.30;;;17.90;63.00;;;;;;5068637;28;20111;-28
2021/01/25 07:06:16;;;;;;;0.75;0.28;;;17.90;63.30;;;;;;5062684;28;20029;-34
2021/01/25 07:08:55;;;;;;;0.43;0.40;;;17.90;63.00;;;;;;5058023;28;20654;-29
2021/01/25 07:11:26;;;;;;;1.25;0.30;;;17.90;63.50;;;;;;5070060;28;20036;-28
2021/01/25 07:13:52;;;;;;;1.77;0.28;;;17.90;63.40;;;;;;5067631;28;20032;-38
2021/01/25 07:16:17;;;;;;;0.28;0.28;;;17.80;62.80;;;;;;5069085;28;20094;-28
2021/01/25 07:18:43;;;;;;;0.75;0.35;;;17.80;62.90;;;;;;5067995;28;20024;-32
2021/01/25 07:21:11;;;;;;;0.30;0.25;;;17.80;63.10;;;;;;5069661;28;20028;-29
2021/01/25 07:23:38;;;;;;;0.32;0.30;;;17.80;63.10;;;;;;5068337;28;20059;-29
2021/01/25 07:26:04;;;;;;;0.20;0.20;;;17.70;63.20;;;;;;5052238;28;20029;-26
2021/01/25 07:28:30;;;;;;;0.40;0.20;;;17.70;63.30;;;;;;5071766;28;20025;-30
2021/01/25 07:30:55;;;;;;;0.82;0.20;;;17.70;63.80;;;;;;5068981;28;20036;-28
2021/01/25 07:33:21;;;;;;;0.35;0.35;;;17.70;63.40;;;;;;5068127;28;20402;-27
2021/01/25 07:35:47;;;;;;;1.27;0.30;;;17.70;63.60;;;;;;5069791;28;20044;-29
2021/01/25 07:38:13;;;;;;;0.40;0.20;;;17.70;63.20;;;;;;5069453;28;20421;-30
2021/01/25 07:40:38;;;;;;;0.15;0.15;;;17.70;63.30;;;;;;5070769;28;20028;-36
2021/01/25 07:43:05;;;;;;;0.35;0.30;;;17.70;63.20;;;;;;5070090;28;20033;-28
2021/01/25 07:45:30;;;;;;;0.85;0.47;;;17.70;63.20;;;;;;5068676;28;20036;-29
2021/01/25 07:47:56;;;;;;;0.32;0.20;;;17.70;63.30;;;;;;5069183;28;20390;-32
2021/01/25 07:50:22;;;;;;;1.08;0.22;;;17.70;63.20;;;;;;5067626;28;20406;-31
2021/01/25 07:53:01;;;;;;;1.27;0.20;;;17.70;63.20;;;;;;5069718;28;20032;-31
2021/01/25 07:55:26;;;;;;;1.15;0.20;;;17.60;63.20;;;;;;5064907;28;20399;-29
2021/01/25 07:57:52;;;;;;;0.40;0.30;;;17.70;63.10;;;;;;5067165;28;20025;-36
2021/01/25 08:00:21;;;;;;;0.20;0.20;;;17.70;63.10;;;;;;5067965;28;20439;-28
2021/01/25 08:03:07;;;;;;;0.45;0.30;;;17.70;63.10;;;;;;5067488;28;20044;-35
2021/01/25 08:05:33;;;;;;;0.20;0.20;;;17.60;63.10;;;;;;5068430;28;20044;-33
2021/01/25 08:07:58;;;;;;;0.30;0.25;;;17.70;63.20;;;;;;5067833;28;20035;-34
2021/01/25 08:10:24;;;;;;;0.52;0.22;;;17.60;63.00;;;;;;5053403;28;20017;-30
2021/01/25 08:12:50;;;;;;;0.38;0.20;;;17.60;63.20;;;;;;5060640;28;20059;-30
2021/01/25 08:15:22;;;;;;;0.70;0.40;;;17.60;63.10;;;;;;5068286;28;20123;-28
2021/01/25 08:17:56;;;;;;;0.17;0.17;;;17.60;63.10;;;;;;5054686;28;20036;-33
2021/01/25 08:20:23;;;;;;;1.00;0.20;;;17.60;63.20;;;;;;5070554;28;20017;-28
2021/01/25 08:22:51;;;;;;;0.50;0.30;;;17.60;63.20;;;;;;5054179;28;20032;-30
2021/01/25 08:25:27;;;;;;;0.40;0.30;;;17.60;63.30;;;;;;5074234;28;20055;-29
2021/01/25 08:28:29;;;;;;;0.40;0.30;;;17.60;63.00;;;;;;5069908;28;20043;-33
2021/01/25 08:31:05;;;;;;;1.45;0.47;;;17.60;63.20;;;;;;4991811;28;20038;-34
2021/01/25 08:33:34;;;;;;;0.30;0.30;;;17.60;63.20;;;;;;4976989;28;20046;-31
2021/01/25 08:36:00;;;;;;;0.30;0.30;;;17.60;63.00;;;;;;4990314;28;20026;-28
2021/01/25 08:38:31;;;;;;;0.30;0.28;;;17.50;63.60;;;;;;4991681;28;20038;-30
2021/01/25 08:40:58;;;;;;;0.90;0.32;;;17.60;63.20;;;;;;4991701;28;20038;-34
2021/01/25 08:43:29;;;;;;;0.45;0.30;;;17.60;62.90;;;;;;5018034;28;20137;-32
2021/01/25 08:46:07;;;;;;;0.38;0.20;;;17.60;62.90;;;;;;4971540;28;20030;-33
2021/01/25 08:48:33;;;;;;;0.30;0.30;;;17.60;62.90;;;;;;4998773;28;20027;-30
2021/01/25 08:51:16;;;;;;;0.85;0.45;;;17.60;62.90;;;;;;4990041;28;20128;-34
2021/01/25 08:53:44;;;;;;;0.20;0.20;;;17.60;63.10;;;;;;4976308;28;20107;-35
2021/01/25 08:56:17;;;;;;;0.25;0.20;;;17.60;63.20;;;;;;4978987;28;20037;-32
2021/01/25 08:58:42;;;;;;;1.02;0.30;;;17.50;63.40;;;;;;4978820;28;20077;-34
2021/01/25 09:01:21;;;;;;;0.70;0.38;;;17.60;63.50;;;;;;4979305;28;20066;-29
2021/01/25 09:03:47;;;;;;;0.57;0.40;;;17.50;63.40;;;;;;4994270;28;20212;-31
2021/01/25 09:06:12;;;;;;;0.55;0.43;;;17.60;63.40;;;;;;5006847;28;20637;-31
2021/01/25 09:08:39;;;;;;;0.57;0.30;;;17.50;63.40;;;;;;5059814;28;20036;-36
2021/01/25 09:11:04;;;;;;;0.57;0.30;;;17.50;63.40;;;;;;5059797;28;20039;-38
2021/01/25 09:13:30;;;;;;;0.50;0.50;;;17.50;63.40;;;;;;5058455;28;20037;-48
2021/01/25 09:15:56;;;;;;;0.50;0.50;;;17.60;63.20;;;;;;5060528;28;20452;-35
2021/01/25 09:18:22;;;;;;;0.75;0.30;;;17.50;63.20;;;;;;5054412;28;20493;-35
2021/01/25 09:20:47;;;;;;;0.90;0.40;;;17.50;63.30;;;;;;5058860;28;20033;-35
2021/01/25 09:23:13;;;;;;;0.30;0.30;;;17.50;63.20;;;;;;5058819;28;20032;-38
2021/01/25 09:25:38;;;;;;;1.27;0.30;;;17.50;63.30;;;;;;5059023;28;20127;-29
2021/01/25 09:28:04;;;;;;;1.20;0.40;;;17.50;63.20;;;;;;5059673;28;20031;-36
2021/01/25 09:30:30;;;;;;;0.43;0.43;;;17.50;62.90;;;;;;5059430;28;20020;-42
2021/01/25 09:32:55;;;;;;;0.35;0.30;;;17.50;62.80;;;;;;5059336;28;20040;-41
2021/01/25 09:35:22;;;;;;;0.30;0.30;;;17.50;63.40;;;;;;5058558;28;20051;-31
2021/01/25 09:37:48;;;;;;;0.52;0.32;;;17.50;62.50;;;;;;5058868;28;20017;-35
2021/01/25 09:40:14;;;;;;;0.43;0.43;;;17.60;63.50;;;;;;5059392;28;20037;-31
2021/01/25 09:42:40;;;;;;;0.30;0.30;;;17.60;62.80;;;;;;5059594;28;20036;-44
2021/01/25 09:45:06;;;;;;;0.73;0.40;;;17.60;62.20;;;;;;5057874;28;20037;-42
2021/01/25 09:47:31;;;;;;;0.30;0.30;;;17.70;62.20;;;;;;5059038;28;20032;-29
2021/01/25 09:49:57;;;;;;;0.40;0.40;;;17.70;61.80;;;;;;5059129;28;20387;-34
2021/01/25 09:52:24;;;;;;;1.10;0.40;;;17.80;61.70;;;;;;5059749;28;20040;-30
2021/01/25 09:54:49;;;;;;;0.40;0.40;;;17.80;61.70;;;;;;5054812;28;20299;-38
2021/01/25 09:57:15;;;;;;;0.43;0.40;;;17.90;61.70;;;;;;5042260;28;20036;-36
2021/01/25 09:59:40;;;;;;;1.02;0.45;;;17.80;61.60;;;;;;5045977;28;20099;-32
2021/01/25 10:02:06;;;;;;;0.40;0.40;;;17.90;61.50;;;;;;5056895;28;20116;-32
2021/01/25 10:04:32;;;;;;;0.68;0.30;;;17.90;61.50;;;;;;5058727;28;20117;-35
2021/01/25 10:06:57;;;;;;;0.30;0.30;;;17.90;61.30;;;;;;5057579;28;20042;-36
2021/01/25 10:09:23;;;;;;;0.35;0.30;;;18.00;61.30;;;;;;5048670;28;20414;-42
2021/01/25 10:11:48;;;;;;;0.40;0.40;;;18.00;61.40;;;;;;5056416;28;20105;-32
2021/01/25 10:14:14;;;;;;;0.52;0.50;;;18.10;61.20;;;;;;5056236;28;20024;-40
2021/01/25 10:16:40;;;;;;;1.05;0.60;;;18.10;61.30;;;;;;5067317;28;20034;-42
2021/01/25 10:19:05;;;;;;;0.30;0.20;;;18.20;61.10;;;;;;5068954;28;20027;-34
2021/01/25 10:21:31;;;;;;;0.40;0.40;;;18.20;61.00;;;;;;5067193;28;20103;-30
2021/01/25 10:23:56;;;;;;;0.70;0.40;;;18.20;60.90;;;;;;5068164;28;20025;-29
2021/01/25 10:26:22;;;;;;;0.30;0.30;;;18.20;60.90;;;;;;5065055;28;20078;-35
2021/01/25 10:28:48;;;;;;;0.30;0.30;;;18.30;60.90;;;;;;5068366;28;20048;-37
2021/01/25 10:31:14;;;;;;;0.80;0.35;;;18.30;60.70;;;;;;5067524;28;20405;-32
2021/01/25 10:33:40;;;;;;;0.35;0.35;;;18.30;60.50;;;;;;5064060;28;20025;-40
2021/01/25 10:36:05;;;;;;;0.30;0.30;;;18.40;60.50;;;;;;5066230;28;20021;-38
2021/01/25 10:38:31;;;;;;;0.77;0.30;;;18.40;60.30;;;;;;5064194;28;20112;-36
2021/01/25 10:40:57;;;;;;;0.38;0.32;;;18.40;60.30;;;;;;5066712;28;20375;-34
2021/01/25 10:43:22;;;;;;;0.77;0.55;;;18.40;60.30;;;;;;5065742;28;20035;-34
2021/01/25 10:45:48;;;;;;;0.57;0.52;;;18.40;60.20;;;;;;5063148;28;20036;-32
2021/01/25 10:48:13;;;;;;;0.50;0.50;;;18.40;60.20;;;;;;5061941;28;20406;-32
2021/01/25 10:50:39;;;;;;;0.65;0.65;;;18.40;60.20;;;;;;5065786;28;20037;-34
2021/01/25 10:53:04;;;;;;;0.47;0.47;;;18.40;60.10;;;;;;5066818;28;20024;-35
2021/01/25 10:55:30;;;;;;;0.40;0.40;;;18.40;60.10;;;;;;5068621;28;20746;-34
2021/01/25 10:57:56;;;;;;;0.50;0.50;;;18.50;60.10;;;;;;5063521;28;20024;-29
2021/01/25 11:00:22;;;;;;;0.82;0.57;;;18.50;60.10;;;;;;5064648;28;20072;-33
2021/01/25 11:02:48;;;;;;;1.00;0.80;;;18.50;60.10;;;;;;5068265;28;20020;-30
2021/01/25 11:05:21;;;;;;;0.30;0.30;;;18.50;60.10;;;;;;5066666;28;20090;-39
2021/01/25 11:07:47;;;;;;;0.38;0.38;;;18.50;59.90;;;;;;5054309;28;20478;-32
2021/01/25 11:10:19;;;;;;;0.50;0.50;;;18.50;59.90;;;;;;5055891;28;20168;-37
2021/01/25 11:12:45;;;;;;;0.40;0.40;;;18.50;59.90;;;;;;5054847;28;20037;-34
2021/01/25 11:15:12;;;;;;;0.40;0.40;;;18.50;59.90;;;;;;5058035;28;20024;-32
2021/01/25 11:17:38;;;;;;;0.82;0.40;;;18.50;60.00;;;;;;5062475;28;20033;-34
2021/01/25 11:20:05;;;;;;;0.40;0.40;;;18.60;59.80;;;;;;5063706;28;20017;-35
2021/01/25 11:22:32;;;;;;;0.40;0.40;;;18.60;59.70;;;;;;4765735;28;10001252;-35
2021/01/25 11:24:58;;;;;;;0.70;0.40;;;18.70;59.70;;;;;;5056568;28;20272;-34
2021/01/25 11:27:23;;;;;;;0.50;0.50;;;18.70;59.40;;;;;;5058779;28;20060;-36
2021/01/25 11:29:49;;;;;;;0.60;0.60;;;18.80;59.40;;;;;;5064657;28;20025;-34
2021/01/25 11:32:14;;;;;;;0.50;0.40;;;18.90;59.20;;;;;;5066403;28;20550;-44
2021/01/25 11:34:40;;;;;;;0.30;0.30;;;19.00;59.20;;;;;;5067291;28;20021;-41
2021/01/25 11:37:06;;;;;;;0.40;0.40;;;19.00;59.00;;;;;;5065167;28;20090;-32
2021/01/25 11:40:12;;;;;;;0.50;0.50;;;19.10;58.90;;;;;;5064085;28;20395;-37
2021/01/25 11:42:37;;;;;;;0.45;0.43;;;19.10;59.00;;;;;;5059470;28;20033;-33
2021/01/25 11:45:04;;;;;;;0.47;0.47;;;19.10;59.20;;;;;;5060596;28;20041;-32
2021/01/25 11:47:30;;;;;;;0.38;0.38;;;19.10;59.30;;;;;;5064619;28;20024;-37
2021/01/25 11:49:56;;;;;;;0.30;0.30;;;19.00;59.20;;;;;;5066199;28;20461;-36
2021/01/25 11:52:21;;;;;;;0.50;0.40;;;19.10;59.30;;;;;;5051713;28;20068;-42
2021/01/25 11:54:47;;;;;;;0.43;0.40;;;19.10;59.30;;;;;;5056041;28;20029;-35
2021/01/25 11:57:12;;;;;;;0.40;0.30;;;19.10;59.30;;;;;;5057522;28;20494;-33
2021/01/25 11:59:38;;;;;;;0.68;0.45;;;19.10;59.20;;;;;;5063093;28;20045;-31
2021/01/25 12:02:03;;;;;;;0.40;0.40;;;19.20;59.10;;;;;;5065727;28;20575;-39
2021/01/25 12:04:29;;;;;;;0.50;0.50;;;19.10;59.30;;;;;;5065757;28;20040;-37
2021/01/25 12:06:55;;;;;;;0.30;0.30;;;19.10;59.30;;;;;;5064215;28;20024;-36
2021/01/25 12:09:23;;;;;;;0.85;0.30;;;19.10;59.30;;;;;;5060623;28;20059;-31
2021/01/25 12:11:49;;;;;;;0.43;0.40;;;19.00;59.20;;;;;;5053613;28;20032;-36
2021/01/25 12:14:15;;;;;;;0.40;0.38;;;19.00;59.30;;;;;;5061749;28;20028;-35
2021/01/25 12:16:41;;;;;;;0.32;0.28;;;19.00;59.40;;;;;;5068087;28;20032;-35
2021/01/25 12:19:06;;;;;;;0.65;0.30;;;19.00;59.40;;;;;;5069002;28;20032;-33
2021/01/25 12:21:32;;;;;;;0.38;0.38;;;18.90;59.60;;;;;;5064743;28;20063;-32
2021/01/25 12:23:57;;;;;;;0.52;0.40;;;19.00;59.50;;;;;;5066020;28;20098;-37
2021/01/25 12:26:23;;;;;;;0.28;0.28;;;19.00;59.40;;;;;;5063980;28;20538;-33
2021/01/25 12:28:49;;;;;;;0.40;0.40;;;19.10;59.40;;;;;;5066982;28;20024;-32
2021/01/25 12:31:14;;;;;;;1.50;0.40;;;19.20;59.20;;;;;;5070919;28;20028;-38
2021/01/25 12:33:40;;;;;;;1.30;0.50;;;19.30;58.80;;;;;;5066777;28;20043;-33
2021/01/25 12:36:06;;;;;;;0.45;0.35;;;19.30;58.70;;;;;;5067984;28;20074;-35
2021/01/25 12:38:31;;;;;;;0.55;0.45;;;19.20;58.80;;;;;;5067462;28;20033;-35
2021/01/25 12:40:57;;;;;;;0.65;0.35;;;19.20;58.90;;;;;;5069387;28;20028;-34
2021/01/25 12:43:22;;;;;;;0.50;0.35;;;19.10;59.00;;;;;;5068589;28;20082;-34